createdAt,value
2022-08-07T00:00:31.039Z,100519.75
2022-08-07T00:03:13.687Z,100516.71
2022-08-07T00:05:46.439Z,100517.86
2022-08-07T00:08:19.100Z,100513.09
2022-08-07T00:10:57.522Z,100512.41
2022-08-07T00:13:30.604Z,100516.66
2022-08-07T00:16:06.528Z,100523.23
2022-08-07T00:18:39.714Z,100521.54
2022-08-07T00:21:56.222Z,100520.65
2022-08-07T00:24:05.442Z,100526.39
2022-08-07T00:26:58.970Z,100525.05
2022-08-07T00:29:32.078Z,100529.19
2022-08-07T00:32:05.810Z,100526.14
2022-08-07T00:34:38.735Z,100526.05
2022-08-07T00:37:11.108Z,100521.67
2022-08-07T00:39:44.837Z,100529.66
2022-08-07T00:42:17.592Z,100532.45
2022-08-07T00:44:50.117Z,100534.83
2022-08-07T00:48:08.302Z,100531.06
2022-08-07T00:50:18.970Z,100531.38
2022-08-07T00:53:09.168Z,100534.71
2022-08-07T00:56:00.347Z,100531.60
2022-08-07T00:58:34.538Z,100528.39
2022-08-07T01:01:06.974Z,100526.34
2022-08-07T01:03:55.802Z,100525.85
2022-08-07T01:06:30.609Z,100525.90
2022-08-07T01:09:02.937Z,100527.70
2022-08-07T01:12:23.439Z,100536.42
2022-08-07T01:14:29.049Z,100545.98
2022-08-07T01:17:04.076Z,100544.06
2022-08-07T01:19:42.048Z,100541.98
2022-08-07T01:22:29.122Z,100540.39
2022-08-07T01:25:40.548Z,100549.48
2022-08-07T01:27:56.518Z,100553.42
2022-08-07T01:30:31.124Z,100550.41
2022-08-07T01:33:03.521Z,100544.80
2022-08-07T01:35:54.114Z,100541.99
2022-08-07T01:38:31.306Z,100541.77
2022-08-07T01:41:10.452Z,100548.93
2022-08-07T01:43:43.545Z,100549.66
2022-08-07T01:46:16.851Z,100548.66
2022-08-07T01:48:53.801Z,100548.74
2022-08-07T01:52:01.986Z,100544.66
2022-08-07T01:54:36.429Z,100542.70
2022-08-07T01:57:24.497Z,100546.04
2022-08-07T02:00:03.111Z,100546.70
2022-08-07T02:03:19.442Z,100548.02
2022-08-07T02:05:55.364Z,100539.95
2022-08-07T02:08:38.200Z,100535.34
2022-08-07T02:11:30.938Z,100534.62
2022-08-07T02:14:08.422Z,100540.96
2022-08-07T02:16:43.135Z,100538.71
2022-08-07T02:20:07.817Z,100539.37
2022-08-07T02:22:18.540Z,100539.70
2022-08-07T02:24:54.108Z,100545.38
2022-08-07T02:27:34.557Z,100542.80
2022-08-07T02:30:09.071Z,100547.33
2022-08-07T02:33:00.695Z,100546.07
2022-08-07T02:36:28.382Z,100547.99
2022-08-07T02:38:33.361Z,100547.48
2022-08-07T02:41:07.934Z,100551.59
2022-08-07T02:43:48.911Z,100549.44
2022-08-07T02:46:25.871Z,100551.69
2022-08-07T02:48:59.626Z,100552.70
2022-08-07T02:51:42.871Z,100552.88
2022-08-07T02:57:17.613Z,100554.08
2022-08-07T03:00:00.862Z,100553.38
2022-08-07T03:02:37.521Z,100544.06
2022-08-07T03:05:24.637Z,100548.26
2022-08-07T03:08:05.226Z,100549.69
2022-08-07T03:10:46.665Z,100548.94
2022-08-07T03:13:25.519Z,100551.65
2022-08-07T03:15:59.594Z,100548.89
2022-08-07T03:18:36.307Z,100549.47
2022-08-07T03:21:11.406Z,100539.45
2022-08-07T03:24:18.277Z,100539.86
2022-08-07T03:26:50.887Z,100545.22
2022-08-07T03:29:25.036Z,100546.77
2022-08-07T03:32:00.655Z,100545.15
2022-08-07T03:34:39.492Z,100540.98
2022-08-07T03:37:27.641Z,100540.58
2022-08-07T03:40:14.979Z,100544.06
2022-08-07T03:42:49.447Z,100545.12
2022-08-07T03:45:30.141Z,100545.67
2022-08-07T03:48:09.974Z,100548.81
2022-08-07T03:50:56.206Z,100550.59
2022-08-07T03:54:02.060Z,100548.58
2022-08-07T03:56:33.487Z,100549.04
2022-08-07T03:59:13.648Z,100547.18
2022-08-07T04:01:49.975Z,100544.66
2022-08-07T04:04:25.404Z,100555.30
2022-08-07T04:07:02.358Z,100554.94
2022-08-07T04:09:51.026Z,100556.59
2022-08-07T04:12:29.043Z,100553.71
2022-08-07T04:15:02.495Z,100557.04
2022-08-07T04:18:56.177Z,100562.13
2022-08-07T04:20:32.154Z,100561.10
2022-08-07T04:23:07.820Z,100556.08
2022-08-07T04:25:52.295Z,100557.38
2022-08-07T04:28:25.951Z,100557.80
2022-08-07T04:30:59.614Z,100557.11
2022-08-07T04:33:35.421Z,100558.02
2022-08-07T04:36:09.877Z,100562.95
2022-08-07T04:38:43.616Z,100563.05
2022-08-07T04:41:19.190Z,100558.73
2022-08-07T04:44:13.231Z,100559.79
2022-08-07T04:47:04.612Z,100557.45
2022-08-07T04:49:47.443Z,100556.08
2022-08-07T04:52:51.325Z,100555.48
2022-08-07T04:58:11.837Z,100554.38
2022-08-07T04:58:47.621Z,100551.95
2022-08-07T05:01:33.143Z,100555.09
2022-08-07T05:04:17.100Z,100557.40
2022-08-07T05:06:59.198Z,100566.61
2022-08-07T05:09:45.796Z,100570.30
2022-08-07T05:12:30.545Z,100571.39
2022-08-07T05:15:23.073Z,100572.70
2022-08-07T05:18:08.519Z,100575.93
2022-08-07T05:20:45.037Z,100571.23
2022-08-07T05:23:23.223Z,100572.89
2022-08-07T05:26:13.822Z,100571.81
2022-08-07T05:28:56.513Z,100568.02
2022-08-07T05:31:35.191Z,100576.26
2022-08-07T05:34:13.452Z,100574.50
2022-08-07T05:36:52.731Z,100572.41
2022-08-07T05:40:06.529Z,100576.40
2022-08-07T05:42:33.761Z,100575.88
2022-08-07T05:45:25.711Z,100578.52
2022-08-07T05:48:05.334Z,100579.48
2022-08-07T05:50:50.733Z,100586.48
2022-08-07T05:54:13.598Z,100588.70
2022-08-07T05:56:26.916Z,100588.98
2022-08-07T05:59:10.026Z,100593.89
2022-08-07T06:01:48.655Z,100595.82
2022-08-07T06:04:26.371Z,100593.46
2022-08-07T06:07:05.984Z,100596.23
2022-08-07T06:09:45.065Z,100596.23
2022-08-07T06:12:35.299Z,100596.04
2022-08-07T06:15:16.046Z,100589.58
2022-08-07T06:17:53.953Z,100589.30
2022-08-07T06:20:49.854Z,100591.58
2022-08-07T06:23:46.320Z,100587.02
2022-08-07T06:26:16.938Z,100589.91
2022-08-07T06:28:54.847Z,100588.27
2022-08-07T06:31:46.644Z,100589.48
2022-08-07T06:34:21.612Z,100590.54
2022-08-07T06:36:55.724Z,100589.07
2022-08-07T06:40:17.950Z,100587.58
2022-08-07T06:42:34.861Z,100590.45
2022-08-07T06:45:18.587Z,100588.25
2022-08-07T06:47:59.147Z,100594.84
2022-08-07T06:50:47.642Z,100595.93
2022-08-07T06:55:28.865Z,100588.77
2022-08-07T06:56:49.740Z,100589.08
2022-08-07T07:00:12.872Z,100591.35
2022-08-07T07:02:53.792Z,100590.71
2022-08-07T07:06:05.764Z,100595.25
2022-08-07T07:08:18.687Z,100589.45
2022-08-07T07:10:58.982Z,100585.52
2022-08-07T07:13:43.683Z,100587.86
2022-08-07T07:16:32.233Z,100586.82
2022-08-07T07:19:55.526Z,100587.34
2022-08-07T07:22:35.721Z,100587.91
2022-08-07T07:25:26.193Z,100589.83
2022-08-07T07:28:03.312Z,100584.81
2022-08-07T07:30:45.723Z,100581.87
2022-08-07T07:33:20.800Z,100585.15
2022-08-07T07:36:05.095Z,100583.04
2022-08-07T07:38:37.954Z,100576.56
2022-08-07T07:41:13.566Z,100572.52
2022-08-07T07:44:16.856Z,100573.02
2022-08-07T07:46:55.176Z,100571.95
2022-08-07T07:50:33.100Z,100577.41
2022-08-07T07:52:27.078Z,100577.19
2022-08-07T07:55:01.811Z,100580.80
2022-08-07T07:57:53.315Z,100581.41
2022-08-07T08:00:31.397Z,100578.83
2022-08-07T08:03:16.989Z,100579.33
2022-08-07T08:06:02.495Z,100579.46
2022-08-07T08:08:39.387Z,100582.27
2022-08-07T08:11:17.973Z,100585.28
2022-08-07T08:14:07.871Z,100582.27
2022-08-07T08:16:50.336Z,100585.11
2022-08-07T08:20:17.859Z,100579.50
2022-08-07T08:22:55.989Z,100582.67
2022-08-07T08:25:49.355Z,100581.04
2022-08-07T08:28:38.101Z,100573.46
2022-08-07T08:31:18.297Z,100572.23
2022-08-07T08:34:05.694Z,100573.21
2022-08-07T08:36:46.342Z,100570.05
2022-08-07T08:39:18.831Z,100575.67
2022-08-07T08:41:57.883Z,100567.25
2022-08-07T08:44:44.292Z,100564.98
2022-08-07T08:47:27.831Z,100566.07
2022-08-07T08:50:06.045Z,100563.96
2022-08-07T08:52:54.212Z,100564.41
2022-08-07T08:55:55.047Z,100570.05
2022-08-07T08:58:33.254Z,100569.92
2022-08-07T09:01:18.762Z,100567.02
2022-08-07T09:03:59.841Z,100564.05
2022-08-07T09:06:42.728Z,100568.09
2022-08-07T09:09:36.802Z,100570.15
2022-08-07T09:12:30.473Z,100563.08
2022-08-07T09:16:24.187Z,100564.27
2022-08-07T09:18:22.806Z,100559.02
2022-08-07T09:21:06.037Z,100558.51
2022-08-07T09:24:49.117Z,100555.95
2022-08-07T09:26:57.065Z,100559.02
2022-08-07T09:30:03.804Z,100560.98
2022-08-07T09:32:52.342Z,100554.58
2022-08-07T09:36:05.014Z,100551.31
2022-08-07T09:38:36.610Z,100545.34
2022-08-07T09:41:24.018Z,100543.81
2022-08-07T09:44:19.183Z,100541.61
2022-08-07T09:47:55.261Z,100545.79
2022-08-07T09:50:19.147Z,100540.27
2022-08-07T09:52:53.811Z,100538.95
2022-08-07T09:56:03.533Z,100533.48
2022-08-07T09:58:58.917Z,100529.14
2022-08-07T10:01:51.943Z,100520.52
2022-08-07T10:04:39.352Z,100525.27
2022-08-07T10:07:52.965Z,100526.69
2022-08-07T10:11:00.318Z,100520.93
2022-08-07T10:14:01.277Z,100523.45
2022-08-07T10:16:59.432Z,100519.36
2022-08-07T10:19:50.480Z,100519.41
2022-08-07T10:22:36.809Z,100513.61
2022-08-07T10:25:22.999Z,100502.95
2022-08-07T10:28:24.334Z,100497.89
2022-08-07T10:31:14.473Z,100488.73
2022-08-07T10:34:15.818Z,100487.61
2022-08-07T10:37:12.370Z,100486.46
2022-08-07T10:40:05.971Z,100482.08
2022-08-07T10:42:47.499Z,100477.60
2022-08-07T10:45:44.809Z,100480.25
2022-08-07T10:48:36.232Z,100473.73
2022-08-07T10:51:16.574Z,100469.05
2022-08-07T10:54:17.412Z,100464.33
2022-08-07T10:57:07.131Z,100470.46
2022-08-07T10:59:58.064Z,100471.17
2022-08-07T11:02:38.102Z,100469.31
2022-08-07T11:05:35.704Z,100470.15
2022-08-07T11:08:29.077Z,100468.02
2022-08-07T11:11:09.291Z,100463.64
2022-08-07T11:14:57.367Z,100461.83
2022-08-07T11:16:51.272Z,100463.73
2022-08-07T11:19:35.889Z,100463.65
2022-08-07T11:22:26.622Z,100458.42
2022-08-07T11:25:14.885Z,100453.79
2022-08-07T11:28:03.295Z,100453.34
2022-08-07T11:30:46.696Z,100454.17
2022-08-07T11:33:59.474Z,100452.25
2022-08-07T11:36:38.896Z,100455.90
2022-08-07T11:39:59.057Z,100444.44
2022-08-07T11:42:38.368Z,100440.39
2022-08-07T11:45:20.377Z,100438.44
2022-08-07T11:48:18.237Z,100431.58
2022-08-07T11:51:41.309Z,100432.98
2022-08-07T11:54:37.536Z,100430.25
2022-08-07T11:57:57.933Z,100430.30
2022-08-07T12:00:20.325Z,100423.32
2022-08-07T12:03:42.165Z,100418.37
2022-08-07T12:06:57.236Z,100414.27
2022-08-07T12:09:57.387Z,100419.27
2022-08-07T12:12:36.672Z,100413.80
2022-08-07T12:15:46.201Z,100417.45
2022-08-07T12:18:22.316Z,100417.79
2022-08-07T12:21:21.152Z,100416.42
2022-08-07T12:24:38.124Z,100413.10
2022-08-07T12:27:17.161Z,100411.61
2022-08-07T12:29:57.695Z,100404.44
2022-08-07T12:32:38.107Z,100400.69
2022-08-07T12:35:14.658Z,100398.27
2022-08-07T12:38:11.610Z,100400.11
2022-08-07T12:40:50.438Z,100392.14
2022-08-07T12:44:02.790Z,100395.56
2022-08-07T12:46:37.374Z,100397.76
2022-08-07T12:49:40.199Z,100399.73
2022-08-07T12:52:34.096Z,100398.73
2022-08-07T12:55:17.906Z,100398.05
2022-08-07T12:58:01.395Z,100395.72
2022-08-07T13:00:49.963Z,100389.11
2022-08-07T13:03:59.352Z,100386.58
2022-08-07T13:07:00.451Z,100375.02
2022-08-07T13:10:38.214Z,100361.73
2022-08-07T13:13:47.165Z,100375.98
2022-08-07T13:16:22.830Z,100382.17
2022-08-07T13:19:11.412Z,100378.48
2022-08-07T13:22:04.128Z,100370.21
2022-08-07T13:24:54.143Z,100372.11
2022-08-07T13:28:05.818Z,100374.83
2022-08-07T13:30:41.301Z,100367.74
2022-08-07T13:34:29.973Z,100361.39
2022-08-07T13:36:27.363Z,100355.13
2022-08-07T13:39:12.690Z,100353.21
2022-08-07T13:41:54.926Z,100348.40
2022-08-07T13:44:34.661Z,100344.36
2022-08-07T13:47:15.746Z,100339.77
2022-08-07T13:50:33.118Z,100342.41
2022-08-07T13:52:46.974Z,100338.39
2022-08-07T13:55:26.310Z,100336.35
2022-08-07T13:58:27.972Z,100346.52
2022-08-07T14:01:12.663Z,100338.83
2022-08-07T14:04:06.835Z,100337.69
2022-08-07T14:06:59.916Z,100340.55
2022-08-07T14:10:12.386Z,100340.29
2022-08-07T14:12:58.623Z,100330.10
2022-08-07T14:15:38.205Z,100327.11
2022-08-07T14:18:29.130Z,100322.52
2022-08-07T14:22:00.554Z,100319.27
2022-08-07T14:24:10.022Z,100310.70
2022-08-07T14:26:51.203Z,100298.33
2022-08-07T14:30:04.954Z,100299.63
2022-08-07T14:32:26.897Z,100296.89
2022-08-07T14:38:03.234Z,100297.40
2022-08-07T14:40:38.931Z,100294.60
2022-08-07T14:43:55.204Z,100292.59
2022-08-07T14:46:08.854Z,100297.29
2022-08-07T14:48:43.649Z,100292.41
2022-08-07T14:51:28.002Z,100290.96
2022-08-07T14:54:32.972Z,100288.52
2022-08-07T14:57:19.177Z,100290.00
2022-08-07T15:00:03.206Z,100288.30
2022-08-07T15:02:39.568Z,100283.14
2022-08-07T15:05:20.372Z,100281.98
2022-08-07T15:07:59.122Z,100280.20
2022-08-07T15:10:32.004Z,100276.09
2022-08-07T15:13:11.716Z,100279.17
2022-08-07T15:15:53.507Z,100279.83
2022-08-07T15:18:40.235Z,100278.48
2022-08-07T15:25:14.522Z,100261.77
2022-08-07T15:27:32.894Z,100263.34
2022-08-07T15:30:19.529Z,100267.29
2022-08-07T15:33:05.562Z,100266.95
2022-08-07T15:36:05.391Z,100265.78
2022-08-07T15:38:59.138Z,100267.55
2022-08-07T15:42:44.482Z,100269.89
2022-08-07T15:48:29.850Z,100270.48
2022-08-07T15:51:21.254Z,100269.14
2022-08-07T15:54:28.141Z,100269.91
2022-08-07T15:57:40.028Z,100263.68
2022-08-07T16:00:31.355Z,100261.92
2022-08-07T16:03:47.382Z,100258.55
2022-08-07T16:06:32.002Z,100257.08
2022-08-07T16:09:10.069Z,100255.25
2022-08-07T16:12:15.051Z,100252.73
2022-08-07T16:15:57.624Z,100250.58
2022-08-07T16:18:52.519Z,100252.85
2022-08-07T16:22:05.179Z,100257.60
2022-08-07T16:24:59.629Z,100255.69
2022-08-07T16:27:57.309Z,100257.00
2022-08-07T16:31:02.918Z,100250.36
2022-08-07T16:34:10.462Z,100249.41
2022-08-07T16:38:07.399Z,100249.89
2022-08-07T16:40:57.006Z,100249.37
2022-08-07T16:44:04.232Z,100238.09
2022-08-07T16:47:12.051Z,100244.18
2022-08-07T16:50:37.128Z,100247.23
2022-08-07T16:54:06.734Z,100245.94
2022-08-07T16:56:56.760Z,100248.16
2022-08-07T16:59:46.188Z,100249.71
2022-08-07T17:02:53.529Z,100245.70
2022-08-07T17:06:19.413Z,100245.85
2022-08-07T17:09:09.106Z,100248.36
2022-08-07T17:12:01.370Z,100248.29
2022-08-07T17:14:48.151Z,100248.92
2022-08-07T17:17:46.525Z,100251.75
2022-08-07T17:20:31.136Z,100254.89
2022-08-07T17:23:32.008Z,100254.54
2022-08-07T17:26:24.052Z,100257.94
2022-08-07T17:30:12.578Z,100257.17
2022-08-07T17:32:30.999Z,100257.32
2022-08-07T17:35:51.557Z,100253.70
2022-08-07T17:38:33.859Z,100258.84
2022-08-07T17:42:01.766Z,100260.20
2022-08-07T17:44:33.732Z,100261.54
2022-08-07T17:47:16.841Z,100262.91
2022-08-07T17:49:55.537Z,100265.55
2022-08-07T17:52:39.793Z,100266.69
2022-08-07T17:56:00.723Z,100265.85
2022-08-07T17:58:30.091Z,100269.27
2022-08-07T18:01:20.770Z,100273.85
2022-08-07T18:04:16.224Z,100271.92
2022-08-07T18:07:20.081Z,100273.01
2022-08-07T18:10:05.834Z,100276.70
2022-08-07T18:13:06.877Z,100277.03
2022-08-07T18:15:53.572Z,100275.47
2022-08-07T18:21:01.536Z,100276.05
2022-08-07T18:21:54.889Z,100274.38
2022-08-07T18:24:34.228Z,100277.38
2022-08-07T18:27:20.960Z,100283.69
2022-08-07T18:30:32.977Z,100287.52
2022-08-07T18:33:32.893Z,100287.80
2022-08-07T18:36:32.687Z,100287.92
2022-08-07T18:40:07.086Z,100288.84
2022-08-07T18:42:28.872Z,100288.23
2022-08-07T18:45:44.277Z,100286.88
2022-08-07T18:48:09.394Z,100293.78
2022-08-07T18:51:00.628Z,100297.12
2022-08-07T18:53:48.710Z,100302.35
2022-08-07T18:56:57.806Z,100308.05
2022-08-07T18:59:58.901Z,100311.77
2022-08-07T19:02:42.162Z,100317.73
2022-08-07T19:05:27.934Z,100317.39
2022-08-07T19:08:27.199Z,100320.07
2022-08-07T19:11:35.852Z,100320.33
2022-08-07T19:14:11.606Z,100325.07
2022-08-07T19:17:07.766Z,100327.25
2022-08-07T19:19:57.526Z,100326.86
2022-08-07T19:22:38.046Z,100328.09
2022-08-07T19:26:21.922Z,100327.55
2022-08-07T19:28:57.686Z,100329.39
2022-08-07T19:31:41.958Z,100333.61
2022-08-07T19:34:33.791Z,100333.93
2022-08-07T19:37:17.475Z,100337.73
2022-08-07T19:40:02.034Z,100338.05
2022-08-07T19:42:42.722Z,100337.93
2022-08-07T19:46:04.763Z,100340.33
2022-08-07T19:48:23.925Z,100338.98
2022-08-07T19:50:58.979Z,100339.03
2022-08-07T19:54:32.447Z,100347.61
2022-08-07T19:57:51.156Z,100344.92
2022-08-07T19:59:41.055Z,100346.42
2022-08-07T20:02:27.019Z,100351.41
2022-08-07T20:05:02.143Z,100347.20
2022-08-07T20:07:47.716Z,100343.70
2022-08-07T20:10:35.651Z,100339.34
2022-08-07T20:13:33.253Z,100346.80
2022-08-07T20:16:32.376Z,100344.16
2022-08-07T20:19:04.477Z,100342.79
2022-08-07T20:21:42.293Z,100353.93
2022-08-07T20:24:19.106Z,100352.95
2022-08-07T20:26:54.902Z,100352.99
2022-08-07T20:29:49.493Z,100357.59
2022-08-07T20:32:40.329Z,100357.66
2022-08-07T20:35:17.777Z,100356.67
2022-08-07T20:37:58.798Z,100353.23
2022-08-07T20:40:39.513Z,100354.73
2022-08-07T20:43:19.415Z,100356.39
2022-08-07T20:46:27.638Z,100363.27
2022-08-07T20:49:54.305Z,100361.73
2022-08-07T20:51:50.233Z,100361.09
2022-08-07T20:54:30.259Z,100361.44
2022-08-07T20:57:10.177Z,100364.33
2022-08-07T21:00:08.326Z,100362.93
2022-08-07T21:05:54.339Z,100360.01
2022-08-07T21:08:40.751Z,100361.50
2022-08-07T21:11:16.701Z,100358.55
2022-08-07T21:14:20.257Z,100360.59
2022-08-07T21:17:06.615Z,100360.15
2022-08-07T21:19:51.876Z,100362.02
2022-08-07T21:22:45.123Z,100359.91
2022-08-07T21:25:38.762Z,100366.59
2022-08-07T21:28:16.718Z,100368.59
2022-08-07T21:31:03.665Z,100364.52
2022-08-07T21:33:44.915Z,100364.09
2022-08-07T21:36:31.078Z,100366.98
2022-08-07T21:39:47.181Z,100366.55
2022-08-07T21:42:41.777Z,100362.34
2022-08-07T21:46:08.469Z,100365.33
2022-08-07T21:48:29.318Z,100371.94
2022-08-07T21:51:20.286Z,100369.83
2022-08-07T21:54:06.306Z,100370.72
2022-08-07T21:56:48.256Z,100370.22
2022-08-07T22:00:02.863Z,100372.86
2022-08-07T22:02:35.474Z,100372.34
2022-08-07T22:05:12.168Z,100370.27
2022-08-07T22:07:59.328Z,100373.40
2022-08-07T22:10:35.469Z,100368.85
2022-08-07T22:13:13.777Z,100376.48
2022-08-07T22:16:44.187Z,100380.38
2022-08-07T22:18:50.919Z,100382.92
2022-08-07T22:22:05.267Z,100384.66
2022-08-07T22:24:32.865Z,100386.16
2022-08-07T22:27:16.003Z,100383.23
2022-08-07T22:29:55.745Z,100379.45
2022-08-07T22:32:42.269Z,100379.42
2022-08-07T22:35:16.046Z,100379.27
2022-08-07T22:38:03.432Z,100376.95
2022-08-07T22:40:45.667Z,100379.65
2022-08-07T22:43:23.482Z,100376.98
2022-08-07T22:46:47.065Z,100374.33
2022-08-07T22:49:33.833Z,100376.46
2022-08-07T22:52:40.090Z,100375.51
2022-08-07T22:55:48.046Z,100376.46
2022-08-07T22:58:56.566Z,100369.16
2022-08-07T23:01:49.952Z,100367.75
2022-08-07T23:04:58.122Z,100367.39
2022-08-07T23:07:54.113Z,100367.32
2022-08-07T23:10:42.018Z,100367.99
2022-08-07T23:14:08.795Z,100367.81
2022-08-07T23:16:55.069Z,100367.39
2022-08-07T23:19:58.010Z,100367.37
2022-08-07T23:22:45.318Z,100366.88
2022-08-07T23:25:33.718Z,100364.64
2022-08-07T23:28:37.673Z,100364.59
2022-08-07T23:32:49.124Z,100361.94
2022-08-07T23:34:40.617Z,100360.01
2022-08-07T23:38:01.138Z,100357.60
2022-08-07T23:40:39.659Z,100355.73
2022-08-07T23:43:38.078Z,100352.35
2022-08-07T23:46:29.417Z,100354.08
2022-08-07T23:49:42.456Z,100350.38
2022-08-07T23:53:15.204Z,100354.46
2022-08-07T23:55:52.301Z,100350.78
2022-08-07T23:58:37.457Z,100352.61
